Time;durP1;ratioP1;P1;durP2;ratioP2;P2;SDS_P1;SDS_P2;PMS_P1;PMS_P2;Temp;Humidity;BMP_temperature;BMP_pressure;BME280_temperature;BME280_humidity;BME280_pressure;Samples;Min_cycle;Max_cycle;Signal;HPM_P1;HPM_P2
2021/03/25 00:00:31;;;;;;;15.70;8.25;;;;;;;0.07;56.67;100025.23;1748423;79;21079;-42
2021/03/25 00:03:01;;;;;;;16.20;8.38;;;;;;;0.05;56.76;100033.61;1749844;79;20974;-43
2021/03/25 00:09:05;;;;;;;16.32;8.73;;;;;;;0.07;56.99;100019.48;1746891;79;21922;-44
2021/03/25 00:11:33;;;;;;;18.07;9.40;;;;;;;0.01;56.98;100018.62;1736472;82;20978;-42
2021/03/25 00:14:01;;;;;;;17.50;9.48;;;;;;;-0.01;57.01;100022.14;1717742;82;21196;-43
2021/03/25 00:16:29;;;;;;;16.00;9.30;;;;;;;-0.03;57.18;100023.92;1716993;82;21586;-43
2021/03/25 00:18:59;;;;;;;19.20;8.78;;;;;;;-0.03;57.24;100025.70;1717366;82;21042;-52
2021/03/25 00:21:29;;;;;;;16.82;9.58;;;;;;;-0.08;57.37;100013.78;1717283;82;21017;-48
2021/03/25 00:23:58;;;;;;;15.00;8.48;;;;;;;-0.10;57.37;100014.23;1717569;82;21136;-48
2021/03/25 00:26:26;;;;;;;15.75;8.03;;;;;;;-0.10;57.39;100008.94;1717692;82;21373;-48
2021/03/25 00:28:55;;;;;;;16.93;9.43;;;;;;;-0.12;57.57;100015.98;1717565;82;20994;-47
2021/03/25 00:31:23;;;;;;;18.05;10.18;;;;;;;-0.11;57.53;100028.35;1717876;82;21518;-48
2021/03/25 00:33:51;;;;;;;17.30;9.28;;;;;;;-0.12;57.59;100010.69;1717262;82;21125;-47
2021/03/25 00:36:21;;;;;;;19.60;10.58;;;;;;;-0.12;57.63;100013.34;1716244;82;21152;-46
2021/03/25 00:38:49;;;;;;;19.98;8.93;;;;;;;-0.12;57.66;100012.02;1717115;82;22117;-47
2021/03/25 00:41:17;;;;;;;17.85;8.65;;;;;;;-0.12;57.66;100008.03;1717893;82;21156;-46
2021/03/25 00:43:47;;;;;;;16.48;8.40;;;;;;;-0.11;57.65;100007.14;1688585;83;21140;-47
2021/03/25 00:46:15;;;;;;;14.45;8.30;;;;;;;-0.13;57.74;100006.28;1717541;82;21128;-46
2021/03/25 00:48:43;;;;;;;16.52;9.40;;;;;;;-0.12;57.73;100009.81;1717118;82;21247;-45
2021/03/25 00:51:11;;;;;;;16.30;8.20;;;;;;;-0.12;57.79;100015.98;1717495;82;21389;-45
2021/03/25 00:53:40;;;;;;;14.78;7.62;;;;;;;-0.10;57.68;100019.98;1717003;82;20997;-46
2021/03/25 00:56:09;;;;;;;15.25;8.75;;;;;;;-0.13;57.68;100015.56;1717384;82;21664;-46
2021/03/25 00:58:38;;;;;;;13.90;7.53;;;;;;;-0.14;57.71;100009.82;1717222;82;21084;-46
2021/03/25 01:01:08;;;;;;;12.75;8.10;;;;;;;-0.14;57.69;100011.15;1717348;82;21109;-47
2021/03/25 01:03:38;;;;;;;14.43;8.38;;;;;;;-0.16;57.68;100018.23;1717331;82;22267;-53
2021/03/25 01:06:06;;;;;;;14.40;8.68;;;;;;;-0.16;57.69;100011.61;1717056;82;21050;-53
2021/03/25 01:08:34;;;;;;;15.20;8.23;;;;;;;-0.17;57.63;100019.09;1708074;82;20994;-52
2021/03/25 01:11:24;;;;;;;15.55;7.78;;;;;;;-0.17;57.65;100019.55;1669786;84;21065;-52
2021/03/25 01:13:59;;;;;;;16.60;8.58;;;;;;;-0.20;57.70;100020.45;1670457;85;21618;-54
2021/03/25 01:16:34;;;;;;;16.35;7.85;;;;;;;-0.25;57.76;100006.33;1665416;84;21429;-52
2021/03/25 01:19:15;;;;;;;14.85;7.97;;;;;;;-0.22;57.89;100014.25;1813955;76;22860;-52
2021/03/25 01:21:44;;;;;;;15.90;8.05;;;;;;;-0.30;57.95;100018.70;1787833;79;21483;-43
2021/03/25 01:24:12;;;;;;;14.05;8.63;;;;;;;-0.35;58.04;100018.70;1750758;79;21378;-42
2021/03/25 01:26:40;;;;;;;15.65;9.40;;;;;;;-0.38;58.18;100017.81;1730275;80;21021;-42
2021/03/25 01:29:09;;;;;;;17.98;8.75;;;;;;;-0.41;58.19;100028.44;1760021;79;21009;-47
2021/03/25 01:31:37;;;;;;;14.40;7.58;;;;;;;-0.42;58.19;100020.06;1757065;78;20981;-47
2021/03/25 01:34:08;;;;;;;15.72;8.53;;;;;;;-0.43;58.26;100024.89;1759791;79;21025;-47
2021/03/25 01:36:36;;;;;;;21.20;9.03;;;;;;;-0.46;58.29;100020.49;1756768;79;21377;-47
2021/03/25 01:39:05;;;;;;;16.23;7.92;;;;;;;-0.46;58.29;100016.97;1764183;79;21008;-47
2021/03/25 01:41:35;;;;;;;15.15;8.83;;;;;;;-0.46;58.26;100011.67;1732542;79;21434;-45
2021/03/25 01:44:04;;;;;;;15.63;9.03;;;;;;;-0.47;58.29;100009.91;1757151;79;21116;-46
2021/03/25 01:46:37;;;;;;;16.82;8.35;;;;;;;-0.47;58.30;100009.47;1759311;78;20988;-51
2021/03/25 01:49:09;;;;;;;16.93;9.18;;;;;;;-0.47;58.35;100014.77;1757417;78;22777;-52
2021/03/25 01:52:12;;;;;;;20.20;9.33;;;;;;;-0.48;58.41;100009.44;1729348;78;20989;-47
2021/03/25 01:55:30;;;;;;;13.98;7.62;;;;;;;-0.42;58.50;100013.44;1812799;76;22924;-48
2021/03/25 01:58:18;;;;;;;16.35;8.10;;;;;;;-0.48;58.48;100021.36;1751239;79;21081;-47
2021/03/25 02:01:18;;;;;;;17.55;9.40;;;;;;;-0.51;58.61;100026.68;1749404;80;21377;-48
2021/03/25 02:04:18;;;;;;;19.73;10.10;;;;;;;-0.56;58.69;100026.23;1747947;80;21014;-48
2021/03/25 02:06:58;;;;;;;17.32;8.38;;;;;;;-0.58;58.77;100018.75;1748375;80;21012;-48
2021/03/25 02:09:50;;;;;;;20.52;10.48;;;;;;;-0.61;58.98;100025.36;1748295;80;21530;-48
2021/03/25 02:12:47;;;;;;;18.23;8.88;;;;;;;-0.63;59.10;100020.52;1747693;80;20998;-48
2021/03/25 02:15:41;;;;;;;15.18;8.53;;;;;;;-0.67;59.11;100018.75;1739318;80;21025;-48
2021/03/25 02:18:30;;;;;;;16.70;8.30;;;;;;;-0.68;59.20;100016.11;1750113;80;21144;-47
2021/03/25 02:21:33;;;;;;;14.98;7.75;;;;;;;-0.70;59.38;100016.09;1746854;80;21019;-47
2021/03/25 02:24:56;;;;;;;18.55;9.63;;;;;;;-0.73;59.34;100008.16;1749204;80;21129;-48
2021/03/25 02:27:51;;;;;;;16.12;8.03;;;;;;;-0.74;59.46;100009.05;1744781;80;21176;-50
2021/03/25 02:30:24;;;;;;;16.67;7.60;;;;;;;-0.77;59.57;100014.33;1745233;80;22117;-55
2021/03/25 02:32:58;;;;;;;15.53;8.25;;;;;;;-0.80;59.69;100009.02;1746866;80;21649;-52
2021/03/25 02:35:41;;;;;;;18.00;8.03;;;;;;;-0.85;59.78;100002.87;1745591;80;21542;-52
2021/03/25 02:38:17;;;;;;;13.98;7.55;;;;;;;-0.86;59.90;100014.33;1737223;80;21133;-52
2021/03/25 02:40:54;;;;;;;15.40;8.40;;;;;;;-0.89;59.94;100009.05;1745252;80;21593;-52
2021/03/25 02:44:03;;;;;;;17.82;8.93;;;;;;;-0.92;60.02;100007.72;1739965;80;22093;-52
2021/03/25 02:46:34;;;;;;;16.10;8.55;;;;;;;-0.91;60.06;100009.03;1749975;80;21700;-53
2021/03/25 02:49:05;;;;;;;16.15;7.53;;;;;;;-0.93;60.12;100007.28;1744126;80;21594;-52
2021/03/25 02:52:01;;;;;;;13.85;8.15;;;;;;;-0.93;60.16;100007.28;1747614;80;21436;-53
2021/03/25 02:54:29;;;;;;;14.20;8.03;;;;;;;-0.92;60.16;100011.69;1749318;80;20986;-53
2021/03/25 02:57:00;;;;;;;13.28;8.23;;;;;;;-0.91;60.09;100012.12;1735501;80;21530;-52
2021/03/25 02:59:34;;;;;;;18.57;9.63;;;;;;;-0.92;60.16;100009.03;1748422;80;21125;-53
2021/03/25 03:02:24;;;;;;;13.53;7.62;;;;;;;-0.94;60.24;100005.52;1748729;80;20959;-44
2021/03/25 03:04:53;;;;;;;18.85;7.78;;;;;;;-0.95;60.33;100010.37;1755696;80;21049;-48
2021/03/25 03:07:25;;;;;;;16.27;8.75;;;;;;;-0.99;60.48;100008.61;1735967;80;21132;-53
2021/03/25 03:10:15;;;;;;;14.68;7.37;;;;;;;-1.03;60.66;100010.80;1758681;80;21373;-53
2021/03/25 03:12:45;;;;;;;14.53;7.55;;;;;;;-1.07;60.71;100006.81;1714705;80;21152;-45
2021/03/25 03:15:20;;;;;;;16.62;7.87;;;;;;;-1.10;60.97;100016.09;1747028;80;21175;-46
2021/03/25 03:18:01;;;;;;;12.60;7.28;;;;;;;-1.13;61.02;100009.46;1744819;79;21632;-46
2021/03/25 03:20:51;;;;;;;14.73;7.67;;;;;;;-1.16;61.08;100016.09;1750983;80;21148;-44
2021/03/25 03:23:32;;;;;;;17.52;7.87;;;;;;;-1.13;61.19;100013.42;1850565;74;20956;-45
2021/03/25 03:26:05;;;;;;;13.83;7.37;;;;;;;-1.19;61.15;100021.36;1819096;76;21044;-44
2021/03/25 03:28:41;;;;;;;17.32;7.67;;;;;;;-1.20;61.17;100009.02;1788364;77;22112;-52
2021/03/25 03:31:27;;;;;;;14.03;7.87;;;;;;;-1.14;61.24;100018.28;1862291;74;22783;-44
2021/03/25 03:34:06;;;;;;;16.27;8.45;;;;;;;-1.21;61.27;100015.64;1752307;80;21770;-43
2021/03/25 03:36:34;;;;;;;19.87;8.75;;;;;;;-1.21;61.31;100014.32;1760257;80;21450;-43
2021/03/25 03:39:14;;;;;;;11.93;7.20;;;;;;;-1.20;61.33;100024.89;1750641;80;21001;-42
2021/03/25 03:42:02;;;;;;;19.90;8.55;;;;;;;-1.21;61.40;100017.84;1744604;80;21136;-45
2021/03/25 03:44:34;;;;;;;16.95;7.95;;;;;;;-1.25;61.44;100016.06;1752839;80;21014;-45
2021/03/25 03:47:04;;;;;;;12.87;8.10;;;;;;;-1.27;61.59;100014.31;1762441;80;21105;-46
2021/03/25 03:49:43;;;;;;;12.65;7.20;;;;;;;-1.28;61.59;100021.78;1756533;80;21420;-53
2021/03/25 03:52:17;;;;;;;14.23;7.55;;;;;;;-1.31;61.71;100016.06;1732419;80;21049;-52
2021/03/25 03:54:49;;;;;;;16.20;7.80;;;;;;;-1.35;61.64;100013.84;1762350;80;21037;-52
2021/03/25 03:57:28;;;;;;;15.95;8.40;;;;;;;-1.33;61.63;100023.13;1785757;78;21015;-53
2021/03/25 04:00:24;;;;;;;13.77;7.27;;;;;;;-1.34;61.59;100025.30;1780058;80;21136;-52
2021/03/25 04:03:11;;;;;;;18.87;7.80;;;;;;;-1.34;61.52;100016.04;1758120;80;21721;-53
2021/03/25 04:06:16;;;;;;;15.53;8.45;;;;;;;-1.27;61.51;100019.16;1815613;76;23505;-54
2021/03/25 04:09:06;;;;;;;17.82;7.20;;;;;;;-1.31;61.51;100021.35;1763512;79;20985;-44
2021/03/25 04:11:44;;;;;;;11.55;7.35;;;;;;;-1.30;61.43;100015.17;1760665;79;21284;-43
2021/03/25 04:14:25;;;;;;;13.45;7.53;;;;;;;-1.29;61.39;100022.22;1761005;79;20978;-44
2021/03/25 04:17:06;;;;;;;12.23;7.85;;;;;;;-1.24;61.36;100019.59;1792385;76;22732;-44
2021/03/25 04:19:42;;;;;;;17.37;8.28;;;;;;;-1.27;61.32;100022.25;1748311;80;21534;-42
2021/03/25 04:22:31;;;;;;;15.25;8.08;;;;;;;-1.20;61.28;100028.86;1793821;76;23331;-53
2021/03/25 04:25:20;;;;;;;14.45;7.65;;;;;;;-1.26;61.20;100028.86;1761410;78;20930;-51
2021/03/25 04:28:10;;;;;;;18.25;8.78;;;;;;;-1.24;61.18;100025.77;1763153;79;21369;-53
2021/03/25 04:30:49;;;;;;;17.45;7.47;;;;;;;-1.16;61.06;100037.26;1795424;77;22749;-52
2021/03/25 04:33:19;;;;;;;15.25;7.92;;;;;;;-1.19;60.81;100039.88;1728407;80;21577;-52
2021/03/25 04:35:49;;;;;;;19.02;8.43;;;;;;;-1.13;60.68;100042.54;1745207;80;21581;-53
2021/03/25 04:38:20;;;;;;;14.13;7.45;;;;;;;-1.10;60.48;100035.94;1756967;78;21517;-52
2021/03/25 04:40:48;;;;;;;14.93;7.47;;;;;;;-1.08;60.29;100039.45;1731300;80;21279;-53
2021/03/25 04:43:19;;;;;;;16.93;8.05;;;;;;;-1.03;60.12;100033.30;1755518;78;21036;-53
2021/03/25 04:46:27;;;;;;;12.63;6.55;;;;;;;-0.99;59.88;100037.72;1764883;78;21017;-53
2021/03/25 04:48:57;;;;;;;13.75;6.22;;;;;;;-0.96;59.52;100036.38;1757415;79;21269;-47
2021/03/25 04:51:26;;;;;;;16.10;7.15;;;;;;;-0.91;59.17;100041.23;1757749;78;21545;-53
2021/03/25 04:54:13;;;;;;;11.60;7.00;;;;;;;-0.89;59.24;100024.94;1759382;78;20987;-53
2021/03/25 04:56:48;;;;;;;13.80;6.80;;;;;;;-0.79;59.15;100038.62;1806504;76;22840;-54
2021/03/25 04:59:16;;;;;;;11.22;6.65;;;;;;;-0.81;58.97;100038.59;1763073;79;21568;-54
2021/03/25 05:01:44;;;;;;;16.27;7.40;;;;;;;-0.77;58.88;100042.58;1760388;79;21612;-51
2021/03/25 05:04:12;;;;;;;12.37;6.95;;;;;;;-0.72;58.69;100036.41;1761942;78;21131;-53
2021/03/25 05:06:59;;;;;;;10.13;6.25;;;;;;;-0.67;58.54;100041.70;1761289;78;21009;-54
2021/03/25 05:09:27;;;;;;;15.50;6.50;;;;;;;-0.67;58.40;100042.58;1771683;78;20981;-52
2021/03/25 05:11:56;;;;;;;24.20;6.12;;;;;;;-0.64;58.41;100039.95;1758838;79;20974;-51
2021/03/25 05:14:26;;;;;;;16.42;7.70;;;;;;;-0.60;58.26;100044.33;1761128;78;21433;-52
2021/03/25 05:17:15;;;;;;;17.55;6.70;;;;;;;-0.53;57.95;100049.21;1764009;79;21001;-53
2021/03/25 05:20:07;;;;;;;11.20;5.85;;;;;;;-0.49;57.65;100051.39;1769628;79;21253;-53
2021/03/25 05:22:45;;;;;;;13.70;6.45;;;;;;;-0.46;57.56;100056.70;1767135;79;21461;-51
2021/03/25 05:25:45;;;;;;;12.78;5.80;;;;;;;-0.44;57.42;100053.16;1765364;79;21005;-53
2021/03/25 05:28:30;;;;;;;18.17;7.35;;;;;;;-0.41;57.39;100060.23;1764067;78;21373;-51
2021/03/25 05:30:58;;;;;;;11.75;6.00;;;;;;;-0.36;57.42;100057.14;1767578;79;21138;-55
2021/03/25 05:33:30;;;;;;;11.45;6.47;;;;;;;-0.30;57.24;100057.13;1764591;78;21036;-51
2021/03/25 05:36:09;;;;;;;10.35;6.37;;;;;;;-0.25;57.22;100063.30;1763948;78;21593;-52
2021/03/25 05:38:45;;;;;;;13.30;7.53;;;;;;;-0.13;57.05;100060.62;1839480;74;38089;-53
2021/03/25 05:41:39;;;;;;;11.73;6.83;;;;;;;-0.14;57.03;100065.48;1818312;76;21059;-51
2021/03/25 05:44:26;;;;;;;12.75;6.28;;;;;;;-0.08;57.05;100065.91;1786946;78;21966;-55
2021/03/25 05:47:28;;;;;;;11.05;5.62;;;;;;;-0.01;56.91;100067.20;1789869;78;20997;-54
2021/03/25 05:50:19;;;;;;;17.07;8.00;;;;;;;0.05;56.63;100070.73;1789867;78;21001;-53
2021/03/25 05:53:01;;;;;;;11.55;6.10;;;;;;;0.06;56.44;100065.89;1792259;77;21553;-53
2021/03/25 05:55:55;;;;;;;12.10;5.78;;;;;;;0.11;56.50;100066.32;1791420;78;20958;-53
2021/03/25 05:58:46;;;;;;;12.68;7.00;;;;;;;0.13;56.46;100072.94;1788354;78;21198;-54
2021/03/25 06:01:28;;;;;;;15.18;6.58;;;;;;;0.16;56.45;100079.53;1792674;77;20985;-54
2021/03/25 06:04:26;;;;;;;13.25;7.53;;;;;;;0.21;56.47;100077.75;1789158;78;20974;-54
2021/03/25 06:07:18;;;;;;;12.63;7.17;;;;;;;0.24;56.38;100080.41;1787963;78;21549;-53
2021/03/25 06:10:05;;;;;;;16.93;7.85;;;;;;;0.31;56.40;100087.45;1789312;77;21048;-56
2021/03/25 06:12:45;;;;;;;14.65;8.03;;;;;;;0.34;56.46;100081.27;1789765;77;21589;-53
2021/03/25 06:15:40;;;;;;;12.47;7.67;;;;;;;0.38;56.62;100082.58;1790914;77;20993;-52
2021/03/25 06:18:44;;;;;;;20.02;8.78;;;;;;;0.43;56.62;100079.47;1791306;77;21616;-54
2021/03/25 06:21:49;;;;;;;16.82;8.35;;;;;;;0.50;56.66;100081.20;1793167;77;21565;-56
2021/03/25 06:24:43;;;;;;;24.30;9.15;;;;;;;0.60;56.54;100086.47;1792977;77;21589;-53
2021/03/25 06:27:47;;;;;;;19.85;8.50;;;;;;;0.64;56.33;100086.45;1793808;77;21431;-51
2021/03/25 06:30:28;;;;;;;16.05;9.48;;;;;;;0.72;55.86;100085.08;1791593;78;21128;-56
2021/03/25 06:33:00;;;;;;;14.75;7.75;;;;;;;0.79;55.79;100082.81;1764777;77;21826;-56
2021/03/25 06:35:33;;;;;;;17.48;8.03;;;;;;;0.86;55.92;100085.89;1777514;78;21108;-54
2021/03/25 06:38:05;;;;;;;18.00;8.23;;;;;;;0.90;55.69;100084.96;1793561;77;20973;-52
2021/03/25 06:40:41;;;;;;;14.55;7.53;;;;;;;0.96;55.61;100086.28;1789617;77;21387;-48
2021/03/25 06:43:39;;;;;;;24.12;13.45;;;;;;;1.03;55.39;100080.03;1761467;78;21670;-49
2021/03/25 06:46:22;;;;;;;14.68;7.53;;;;;;;1.12;55.10;100081.75;1792740;78;21109;-48
2021/03/25 06:48:56;;;;;;;18.20;8.23;;;;;;;1.18;54.71;100079.05;1793869;77;20954;-48
2021/03/25 06:51:34;;;;;;;14.05;8.20;;;;;;;1.28;54.85;100082.53;1798997;76;22687;-48
2021/03/25 06:54:17;;;;;;;14.78;6.90;;;;;;;1.27;54.76;100080.73;1749387;79;20974;-43
2021/03/25 06:56:49;;;;;;;11.08;6.08;;;;;;;1.32;54.18;100080.26;1749664;80;21377;-53
2021/03/25 06:59:32;;;;;;;18.23;7.10;;;;;;;1.48;53.82;100080.58;1808541;78;23270;-54
2021/03/25 07:02:09;;;;;;;17.57;6.97;;;;;;;1.50;53.98;100086.78;1780989;79;20970;-44
2021/03/25 07:04:46;;;;;;;11.95;6.80;;;;;;;1.62;53.45;100072.95;1856073;74;22691;-52
2021/03/25 07:07:25;;;;;;;14.80;6.97;;;;;;;1.62;52.97;100075.16;1846968;75;20973;-55
2021/03/25 07:09:53;;;;;;;17.42;7.08;;;;;;;1.68;53.25;100076.88;1839269;76;21382;-47
2021/03/25 07:12:26;;;;;;;11.80;6.67;;;;;;;1.72;53.26;100078.17;1830578;76;20971;-48
2021/03/25 07:14:56;;;;;;;14.33;6.65;;;;;;;1.79;52.94;100082.52;1842239;77;20973;-47
2021/03/25 07:17:40;;;;;;;14.80;6.75;;;;;;;1.87;53.04;100075.81;1834039;77;20919;-47
2021/03/25 07:20:22;;;;;;;16.85;6.92;;;;;;;1.95;52.84;100080.59;1755748;79;21640;-52
2021/03/25 07:23:15;;;;;;;17.15;6.10;;;;;;;2.09;52.41;100080.47;1902601;73;22746;-47
2021/03/25 07:25:47;;;;;;;9.60;5.75;;;;;;;2.10;51.93;100067.14;1865370;75;21000;-50
2021/03/25 07:28:23;;;;;;;10.85;5.85;;;;;;;2.17;51.62;100069.73;1866978;75;21195;-48
2021/03/25 07:30:58;;;;;;;10.40;5.33;;;;;;;2.23;51.53;100068.33;1859182;75;20977;-48
2021/03/25 07:33:28;;;;;;;11.05;5.83;;;;;;;2.28;51.33;100067.37;1796387;77;21703;-49
2021/03/25 07:36:08;;;;;;;11.65;5.90;;;;;;;2.35;50.48;100073.53;1818921;77;21080;-50
2021/03/25 07:38:38;;;;;;;10.65;5.97;;;;;;;2.42;50.80;100069.88;1831731;77;20993;-47
2021/03/25 07:41:21;;;;;;;9.48;5.22;;;;;;;2.53;50.70;100070.63;1826515;76;21508;-49
2021/03/25 07:43:58;;;;;;;12.13;4.92;;;;;;;2.61;50.30;100058.11;1788576;78;21598;-49
2021/03/25 07:46:46;;;;;;;6.92;4.35;;;;;;;2.72;49.48;100065.96;1799462;78;21008;-49
2021/03/25 07:49:22;;;;;;;7.95;4.97;;;;;;;2.81;49.08;100078.25;1818649;77;20993;-48
2021/03/25 07:52:03;;;;;;;9.28;4.85;;;;;;;2.87;48.38;100063.52;1796154;77;20965;-47
2021/03/25 07:54:39;;;;;;;7.62;4.10;;;;;;;2.96;47.93;100051.41;1794375;77;21587;-45
2021/03/25 07:57:23;;;;;;;9.28;4.03;;;;;;;3.12;46.64;100069.38;1795114;78;22896;-45
2021/03/25 07:59:53;;;;;;;6.08;3.80;;;;;;;3.14;45.73;100048.91;1753068;79;21704;-44
2021/03/25 08:02:33;;;;;;;6.62;3.90;;;;;;;3.23;45.57;100054.55;1748475;79;21192;-44
2021/03/25 08:05:30;;;;;;;7.37;4.35;;;;;;;3.32;46.16;100043.76;1748671;79;21098;-45
2021/03/25 08:08:09;;;;;;;7.78;3.67;;;;;;;3.41;45.56;100062.28;1747035;79;21009;-44
2021/03/25 08:10:49;;;;;;;5.10;3.30;;;;;;;3.53;44.76;100048.73;1816625;75;22652;-45
2021/03/25 08:13:26;;;;;;;6.10;3.42;;;;;;;3.55;43.68;100054.91;1782683;80;21027;-54
2021/03/25 08:16:06;;;;;;;4.10;3.00;;;;;;;3.59;43.13;100052.62;1783626;78;21195;-53
2021/03/25 08:19:24;;;;;;;5.33;3.50;;;;;;;3.65;43.37;100051.19;1784394;80;21533;-52
2021/03/25 08:22:19;;;;;;;6.95;3.80;;;;;;;3.72;42.83;100064.41;1782911;78;21012;-53
2021/03/25 08:25:20;;;;;;;8.78;3.83;;;;;;;3.77;42.60;100052.75;1783222;78;21508;-53
2021/03/25 08:28:17;;;;;;;6.90;3.37;;;;;;;3.87;42.73;100058.80;1785594;78;21543;-54
2021/03/25 08:31:05;;;;;;;7.67;3.47;;;;;;;3.96;41.80;100050.64;1784252;79;21366;-48
2021/03/25 08:34:02;;;;;;;6.15;3.15;;;;;;;4.17;41.75;100052.91;1811615;78;22858;-47
2021/03/25 08:36:51;;;;;;;5.97;3.15;;;;;;;4.24;40.26;100058.12;1797692;77;21550;-47
2021/03/25 08:40:01;;;;;;;4.60;2.80;;;;;;;4.31;40.14;100057.08;1748605;79;22280;-48
2021/03/25 08:42:41;;;;;;;6.17;3.87;;;;;;;4.36;39.35;100071.22;1751398;80;21002;-48
2021/03/25 08:45:40;;;;;;;13.95;3.52;;;;;;;4.44;39.09;100051.47;1780468;79;20959;-48
2021/03/25 08:48:18;;;;;;;7.05;3.30;;;;;;;4.53;39.13;100055.75;1776642;79;21536;-49
2021/03/25 08:51:15;;;;;;;5.90;3.00;;;;;;;4.58;38.81;100045.86;1745822;80;20985;-53
2021/03/25 08:53:53;;;;;;;4.45;2.77;;;;;;;4.68;38.41;100042.05;1724009;80;22358;-45
2021/03/25 08:56:35;;;;;;;6.55;3.35;;;;;;;4.73;37.68;100037.48;1778811;79;20963;-46
2021/03/25 08:59:15;;;;;;;4.42;3.10;;;;;;;4.79;37.35;100039.14;1778648;79;21056;-46
2021/03/25 09:02:02;;;;;;;5.83;3.10;;;;;;;4.90;36.42;100030.88;1827791;76;27886;-48
2021/03/25 09:04:34;;;;;;;5.45;2.85;;;;;;;4.88;35.88;100030.05;1800604;77;20978;-45
2021/03/25 09:07:06;;;;;;;6.35;3.15;;;;;;;4.91;35.15;100045.57;1766598;78;21377;-44
2021/03/25 09:09:48;;;;;;;4.12;2.75;;;;;;;4.91;35.03;100032.67;1797820;78;20997;-45
2021/03/25 09:12:29;;;;;;;3.65;2.67;;;;;;;4.97;35.53;100033.86;1796651;77;21552;-53
2021/03/25 09:14:58;;;;;;;6.10;2.98;;;;;;;5.08;35.01;100026.92;1770269;77;20996;-54
2021/03/25 09:17:32;;;;;;;5.60;2.70;;;;;;;5.16;35.70;100031.16;1797917;77;21580;-55
2021/03/25 09:20:00;;;;;;;8.28;2.72;;;;;;;5.23;34.20;100038.14;1799377;77;21282;-54
2021/03/25 09:22:49;;;;;;;5.60;2.50;;;;;;;5.32;34.04;100037.48;1797965;77;21564;-53
2021/03/25 09:25:36;;;;;;;4.42;2.22;;;;;;;5.45;33.22;100025.58;1821036;76;22706;-54
2021/03/25 09:28:18;;;;;;;2.90;2.02;;;;;;;5.50;32.14;100041.05;1760432;78;21617;-54
2021/03/25 09:31:11;;;;;;;4.25;2.10;;;;;;;5.56;31.87;100034.67;1774738;79;21367;-53
2021/03/25 09:36:39;;;;;;;3.50;2.30;;;;;;;5.69;31.26;100027.61;1813972;78;22366;-48
2021/03/25 09:39:32;;;;;;;3.55;1.98;;;;;;;5.70;31.56;100028.48;1758598;79;21635;-45
2021/03/25 09:42:06;;;;;;;4.37;2.30;;;;;;;5.70;30.81;100019.12;1756901;79;21357;-45
2021/03/25 09:44:38;;;;;;;3.08;2.05;;;;;;;5.66;30.43;100029.05;1714504;80;21587;-48
2021/03/25 09:47:14;;;;;;;5.33;2.58;;;;;;;5.63;30.53;100025.09;1721088;80;21049;-48
2021/03/25 09:49:56;;;;;;;4.03;2.60;;;;;;;5.63;30.87;100026.44;1691644;82;21044;-48
2021/03/25 09:52:35;;;;;;;7.83;2.87;;;;;;;5.65;31.42;100023.28;1722458;80;25721;-48
2021/03/25 09:55:09;;;;;;;2.85;2.30;;;;;;;5.66;31.29;100023.70;1690356;82;21179;-48
2021/03/25 09:57:40;;;;;;;3.67;2.65;;;;;;;5.69;31.56;100020.92;1721162;80;21045;-48
2021/03/25 10:00:27;;;;;;;4.97;2.47;;;;;;;5.73;31.38;100033.31;1690718;82;21093;-46
2021/03/25 10:02:58;;;;;;;4.55;2.80;;;;;;;5.72;30.70;100034.23;1720819;80;21119;-46
2021/03/25 10:05:34;;;;;;;7.05;3.40;;;;;;;5.71;31.07;100028.47;1721234;80;21575;-45
2021/03/25 10:08:20;;;;;;;3.47;2.70;;;;;;;5.74;31.44;100023.02;1690891;82;22043;-49
2021/03/25 10:10:57;;;;;;;4.03;2.50;;;;;;;5.79;31.91;100029.59;1723813;80;20985;-48
2021/03/25 10:13:45;;;;;;;4.55;2.90;;;;;;;5.87;31.67;100044.13;1695588;81;21022;-48
2021/03/25 10:16:40;;;;;;;4.53;2.58;;;;;;;5.91;31.95;100024.37;1724911;80;21132;-50
2021/03/25 10:19:10;;;;;;;4.85;2.85;;;;;;;5.93;31.18;100033.29;1696671;82;21107;-50
2021/03/25 10:21:59;;;;;;;6.12;2.90;;;;;;;5.93;31.56;100026.59;1726428;80;22249;-49
2021/03/25 10:24:42;;;;;;;5.20;2.40;;;;;;;5.96;30.87;100013.11;1697328;82;21203;-50
2021/03/25 10:27:30;;;;;;;5.35;2.65;;;;;;;6.04;30.71;100015.13;1732409;80;20981;-49
2021/03/25 10:29:58;;;;;;;4.47;2.80;;;;;;;6.12;31.12;100008.22;1692738;82;21152;-48
2021/03/25 10:32:37;;;;;;;8.18;2.92;;;;;;;6.17;31.19;100012.52;1694848;80;21214;-48
2021/03/25 10:35:14;;;;;;;5.33;2.70;;;;;;;6.25;31.12;100014.53;1665738;82;21393;-49
2021/03/25 10:37:49;;;;;;;4.47;2.98;;;;;;;6.32;31.66;100017.91;1664823;83;21002;-48
2021/03/25 10:40:25;;;;;;;6.83;2.92;;;;;;;6.38;31.19;99994.08;1725758;80;21000;-49
2021/03/25 10:42:57;;;;;;;4.97;2.37;;;;;;;6.43;30.93;100006.41;1694003;82;21275;-50
2021/03/25 10:45:51;;;;;;;4.70;2.50;;;;;;;6.47;29.93;99991.14;1726431;80;21167;-49
2021/03/25 10:48:41;;;;;;;4.25;2.70;;;;;;;6.50;29.91;100003.12;1690280;82;21538;-55
2021/03/25 10:51:21;;;;;;;3.35;2.45;;;;;;;6.64;30.51;99991.50;1814793;78;23120;-53
2021/03/25 10:53:52;;;;;;;3.95;2.25;;;;;;;6.68;30.19;99994.52;1776752;79;20962;-53
2021/03/25 10:56:33;;;;;;;3.45;1.95;;;;;;;6.77;28.84;100002.75;1776449;79;21193;-54
2021/03/25 10:59:18;;;;;;;2.25;1.87;;;;;;;6.80;28.09;99986.09;1779483;79;20990;-54
2021/03/25 11:01:51;;;;;;;3.92;2.17;;;;;;;6.83;28.36;99984.66;1785061;78;21005;-50
2021/03/25 11:04:22;;;;;;;4.42;2.50;;;;;;;6.89;28.28;99988.08;1777074;78;20993;-48
2021/03/25 11:06:52;;;;;;;4.50;2.72;;;;;;;6.95;28.22;99977.16;1715381;82;21127;-48
2021/03/25 11:09:29;;;;;;;4.72;2.47;;;;;;;6.99;28.45;99986.87;1714244;81;21445;-49
2021/03/25 11:12:13;;;;;;;4.08;2.27;;;;;;;6.99;28.86;99985.06;1717921;80;21574;-48
2021/03/25 11:14:48;;;;;;;3.08;2.12;;;;;;;7.00;28.64;99972.53;1712309;80;21602;-48
2021/03/25 11:17:30;;;;;;;3.77;2.22;;;;;;;7.04;28.34;99979.55;1712391;80;21138;-49
2021/03/25 11:20:00;;;;;;;6.03;3.92;;;;;;;7.06;28.28;99966.96;1718204;82;21119;-50
2021/03/25 11:22:30;;;;;;;3.80;3.00;;;;;;;7.09;28.34;99980.28;1712613;82;21364;-49
2021/03/25 11:25:03;;;;;;;7.15;4.03;;;;;;;7.09;28.02;99981.62;1711255;80;21057;-49
2021/03/25 11:27:31;;;;;;;5.22;2.60;;;;;;;7.08;28.44;99963.32;1708552;81;21578;-48
2021/03/25 11:30:15;;;;;;;7.00;3.12;;;;;;;7.13;28.70;99973.87;1716230;81;21176;-49
2021/03/25 11:32:50;;;;;;;4.67;2.62;;;;;;;7.24;28.86;99962.32;1787068;78;22958;-49
2021/03/25 11:35:40;;;;;;;4.83;2.80;;;;;;;7.27;29.03;99963.57;1750007;79;21592;-48
2021/03/25 11:38:28;;;;;;;3.55;2.35;;;;;;;7.35;28.81;99961.52;1749964;79;21397;-48
2021/03/25 11:41:18;;;;;;;5.58;2.37;;;;;;;7.46;28.57;99952.23;1926098;73;22651;-49
2021/03/25 11:43:51;;;;;;;3.52;2.30;;;;;;;7.46;27.84;99995.17;1856539;76;20914;-47
2021/03/25 11:49:22;;;;;;;8.08;2.62;;;;;;;7.42;27.92;99966.67;1855340;76;22697;-49
2021/03/25 11:52:01;;;;;;;7.83;2.65;;;;;;;7.38;27.77;99959.66;1829171;76;21581;-48
2021/03/25 11:54:34;;;;;;;5.78;3.30;;;;;;;7.37;28.04;99963.27;1829975;76;21187;-53
2021/03/25 11:57:22;;;;;;;12.30;4.70;;;;;;;7.38;30.36;99969.05;1828965;77;28302;-54
2021/03/25 12:00:03;;;;;;;12.18;3.77;;;;;;;7.23;31.63;99973.11;1830131;77;20973;-53
2021/03/25 12:02:35;;;;;;;8.60;3.05;;;;;;;7.11;32.24;99960.98;1825807;77;21001;-54
2021/03/25 12:05:31;;;;;;;5.67;2.70;;;;;;;7.02;32.75;99957.25;1827792;77;21032;-55
2021/03/25 12:08:18;;;;;;;4.58;2.85;;;;;;;7.00;32.81;99948.39;1810817;76;22276;-54
2021/03/25 12:10:49;;;;;;;4.78;3.15;;;;;;;6.92;32.75;99947.75;1811260;77;20910;-54
2021/03/25 12:13:17;;;;;;;3.83;2.45;;;;;;;6.88;32.70;99955.03;1750527;77;22882;-53
2021/03/25 12:15:45;;;;;;;4.55;2.42;;;;;;;6.85;32.85;99951.56;1808882;77;20982;-55
2021/03/25 12:18:21;;;;;;;3.80;2.67;;;;;;;6.81;32.94;99948.09;1809836;77;21542;-54
2021/03/25 12:20:50;;;;;;;4.95;2.98;;;;;;;6.81;32.80;99944.08;1809163;77;20970;-45
2021/03/25 12:23:22;;;;;;;7.12;2.87;;;;;;;6.79;32.77;99948.15;1809947;77;21029;-45
2021/03/25 12:25:53;;;;;;;3.92;2.27;;;;;;;6.81;32.61;99951.65;1809213;78;22125;-44
2021/03/25 12:28:22;;;;;;;3.77;2.75;;;;;;;6.83;32.57;99951.16;1809095;78;20956;-45
2021/03/25 12:30:49;;;;;;;4.78;2.40;;;;;;;6.87;32.69;99949.70;1810009;77;20977;-46
2021/03/25 12:33:23;;;;;;;3.98;2.22;;;;;;;6.88;32.12;99947.46;1807782;77;21097;-46